Tiempo atmosférico en la estación meteorológica de A Coruña Aeropuerto, A Coruña (98 m.)



Fecha
DESCASC
Temp. máxima en grados centígrados (hora)
DESCASC
Temp. mínima en grados centígrados (hora)
DESCASC
Temp. media en grados centígrados
DESCASC
Racha de viento máxima en m/sg (hora)
DESCASC
Velocidad máxima media en intervalos de 10 minutos(hora)
DESCASC
Precipitaciones diarias en mm
DESCASC
Precipitaciones de 00:00 a 06:00 en mm
DESCASC
Precipitaciones de 06:00 a 12:00 en mm
DESCASC
Precipitaciones de 12:00 a 18:00 en mm
DESCASC
Precipitaciones de 18:00 a 24:00 en mm
DESCASC
18-01-2018 11.7 (17:00) 6.1 (04:30) 8.9 8.33 (07:20) 4.72 (13:10) 0 0 0 0 0
17-01-2018 12.5 (00:10) 9.6 (23:00) 11.1 9.72 (05:20) 5.56 (05:20) 0 0 0 0 0
16-01-2018 15.2 (14:40) 11.1 (00:00) 13.2 10.83 (14:20) 6.11 (23:20) 1 0.9 0.1 0 0
15-01-2018 12 (16:20) 1.8 (02:30) 6.9 13.89 (15:50) 9.17 (11:20) 0.1 0 0 0 0.1
14-01-2018 12.2 (15:50) 2.6 (00:00) 7.4 7.78 (11:20) 4.17 (23:50) 1.5 1.5 0 0 0
13-01-2018 12.5 (12:50) 4.9 (00:00) 8.7 10.28 (13:00) 6.11 (00:10) 10.4 4.2 0.5 1.2 4.5
12-01-2018 13 (15:20) 3.1 (00:00) 8 13.89 (17:30) 9.72 (17:20) 0.3 0 0 0 0.3
11-01-2018 11.8 (13:30) 5.9 (00:00) 8.9 21.67 (00:20) 10.28 (00:20) 2.8 2.5 0.3 0 0
10-01-2018 11.9 (12:40) 6.7 (00:00) 9.3 20 (23:40) 10.56 (10:30) 12.9 0 6 1.8 5.1
09-01-2018 14.7 (14:50) 8.2 (00:00) 11.4 21.67 (11:20) 13.33 (11:20) 3.5 0 0 3.2 0.3
08-01-2018 12.4 (16:10) 4.3 (00:00) 8.3 12.5 (22:40) 7.78 (22:50) 0 0 0 0 0
07-01-2018 10.8 (23:10) 1.3 (00:00) 6.1 15 (14:20) 7.5 (14:50) 2.9 1.3 1.4 0 0.2
06-01-2018 9.5 (15:40) 2 (00:00) 5.8 11.39 (03:50) 6.67 (04:00) 6.1 2.7 2.5 0 0.9
05-01-2018 14.4 (00:20) 4.9 (00:00) 9.6 15.28 (00:40) 8.61 (01:00) 22.1 17 3.8 1.3 0
04-01-2018 16.6 (13:30) 13.6 (23:50) 15.1 16.11 (13:20) 10.28 (13:50) 1.9 0 0 0 1.9
03-01-2018 18 (14:30) 15.1 (00:00) 16.6 12.78 (17:30) 7.5 (20:40) 0 0 0 0 0
02-01-2018 17.4 (13:50) 13.7 (00:00) 15.5 13.33 (00:40) 7.5 (01:20) 1.4 0.1 1.2 0.1 0
01-01-2018 15 (14:30) 9 (00:00) 12 16.94 (07:10) 8.89 (14:00) 0.5 0 0.4 0.1 0
31-12-2017 15.1 (00:10) 7.4 (00:00) 11.3 23.61 (14:30) 13.61 (14:30) 15.9 0.4 14.5 0.8 0.2
30-12-2017 18 (14:10) 13.7 (00:00) 15.8 19.72 (18:40) 11.67 (17:20) 0 0 0 0 0
29-12-2017 17.9 (15:20) 12.2 (00:00) 15 13.33 (07:00) 8.33 (16:10) 2.6 2.2 0.4 0 0
28-12-2017 14.1 (15:30) 8.3 (00:00) 11.2 15.28 (07:30) 8.61 (08:10) 3.5 0.3 3.2 0 0
27-12-2017 12 (01:50) 7.4 (00:00) 9.7 18.89 (00:20) 12.22 (00:30) 5.9 0.9 1.6 1.6 1.8
26-12-2017 14.4 (20:10) 6 (00:00) 10.2 24.72 (21:40) 12.22 (21:40) 5.7 0 0.5 3 2.2
25-12-2017 12.7 (13:50) 4 (00:00) 8.3 17.5 (15:10) 10.83 (14:40) 8.8 0 0 6.8 2
24-12-2017 15.5 (16:10) 2.8 (00:00) 9.1 9.17 (06:50) 5.28 (15:00) 0 0 0 0 0
23-12-2017 13.9 (16:10) 1.6 (00:00) 7.7 6.67 (21:50) 3.61 (23:10) 0 0 0 0 0
22-12-2017 13.7 (16:20) 1.2 (00:00) 7.4 7.22 (15:00) 4.17 (15:00) 0 0 0 0 0

Gráficas

Temp. máximas Temp. mínimas Temp. medias Precipitaciones Rachas de viento máximas Velocidades máximas media en intervalos de 10 minutos

Datos horarios

Fecha y hora oficial Temperatura (ºC) Velocidad del viento (km/h) Dirección del viento Racha (km/h) Dirección de racha Precipitación (mm) Presión (hPa) Tendencia (hPa) Humedad (%)
2018-01-20 23:00:00 -- -- -- -- -- -- -- -- --
2018-01-20 22:00:00 13.7 13 Sudoeste 26 Sudoeste 0 1017.3 1.2 82
2018-01-20 21:00:00 13.9 10 Oeste 28 Sudoeste 0 1017.2 1.5 80
2018-01-20 20:00:00 13.2 5 Sudeste 18 Sudeste 0 1016.6 1.5 85
2018-01-20 19:00:00 13.9 9 Sur 30 Sudoeste 0 1016.1 1.4 82
2018-01-20 18:00:00 14.5 13 Sudoeste 33 Oeste 0 1015.7 1.1 79
2018-01-20 17:00:00 15 16 Oeste 33 Oeste 0 1015.1 0.3 76
2018-01-20 16:00:00 14.6 14 Oeste 33 Oeste 0 1014.7 -0.7 81
2018-01-20 15:00:00 14.8 14 Oeste 28 Oeste 0 1014.6 -0.7 79
2018-01-20 14:00:00 14.2 12 Sur 28 Sudoeste 0 1014.8 -0.5 80
2018-01-20 13:00:00 14.5 18 Sudoeste 33 Sudoeste 0 1015.4 0 77
2018-01-20 12:00:00 13.8 26 Sudoeste 35 Sudoeste 0 1015.3 0.4 78
2018-01-20 11:00:00 11.9 22 Sudoeste 30 Sudoeste 0 1015.3 0.6 83
2018-01-20 10:00:00 10.5 14 Sur 21 Sur 0 1015.4 0.9 86
2018-01-20 09:00:00 10 12 Sur 22 Sur 0 1014.9 0.4 85
2018-01-20 08:00:00 9.9 14 Sur 28 Sur 0 1014.7 0.3 85
2018-01-20 07:00:00 9.5 12 Sur 21 Sur 0 1014.5 -0.4 86
2018-01-20 06:00:00 8.6 11 Sur 21 Sudeste 0 1014.5 -0.6 87
2018-01-20 05:00:00 7.8 14 Sudeste 18 Sudeste 0 1014.4 -1.3 88
2018-01-20 04:00:00 7.7 11 Sur 17 Sur 0 1014.9 -0.9 86
2018-01-20 03:00:00 8 10 Sudeste 17 Sur 0 1015.1 -0.4 85
2018-01-20 02:00:00 8.8 8 Sur 18 Sudoeste 0 1015.7 -0.3 81
2018-01-20 01:00:00 8.8 15 Sudoeste 22 Sudoeste 0 1015.8 -0.2 84
2018-01-20 00:00:00 9 15 Sudoeste 22 Sudoeste 0 1015.5 -0.4 83
2018-01-19 23:00:00 11.1 10 Sudoeste 15 Oeste 0 1016 0.1 74
2018-01-19 22:00:00 11.1 13 Sudoeste 21 Sudoeste 0 1016 0.5 78
2018-01-19 21:00:00 11.1 9 Sudoeste 21 Oeste 0 1015.9 0.7 82
2018-01-19 20:00:00 11.2 8 Oeste 15 Oeste 0 1015.9 1.2 80
2018-01-19 19:00:00 11.6 5 Oeste 15 Oeste 0 1015.5 1.2 77
2018-01-19 18:00:00 12 9 Oeste 18 Noroeste 0 1015.2 1.2 76
2018-01-19 17:00:00 13 7 Noroeste 18 Noroeste 0 1014.7 0 70
2018-01-19 16:00:00 12.9 11 Noroeste 22 Noroeste 0 1014.3 -0.8 68
2018-01-19 15:00:00 13.1 6 Norte 15 Noroeste 0 1014 -1.1 66
2018-01-19 14:00:00 13.2 0 Calma 11 Este 0 1014.7 0.1 71
2018-01-19 13:00:00 12 3 Sudeste 18 Norte 0 1015.1 0.8 79
2018-01-19 12:00:00 11.6 3 Sur 8 Sur 0 1015.1 1.4 82
2018-01-19 11:00:00 11.3 0 Calma 11 Noroeste 0 1014.6 1.7 82
2018-01-19 10:00:00 11.1 7 Norte 30 Norte 0 1014.3 2.3 74
2018-01-19 09:00:00 11.2 19 Norte 32 Noroeste 0 1013.7 2 82
2018-01-19 08:00:00 10.5 11 Noroeste 45 Norte 0.2 1012.9 1.6 98
2018-01-19 07:00:00 11.1 21 Norte 39 Norte 0.4 1012 0.2 99
2018-01-19 06:00:00 11.4 5 Oeste 15 Oeste 0.1 1011.7 -0.1 99
2018-01-19 05:00:00 10.1 6 Sur 8 Sur 0 1011.3 -0.8 98
2018-01-19 04:00:00 10 6 Sur 11 Sur 0.3 1011.8 -0.6 98
2018-01-19 03:00:00 10 6 Sur 11 Sur 0 1011.8 -0.5 98
2018-01-19 02:00:00 10 5 Sur 13 Sur 0 1012.1 -0.4 98
2018-01-19 01:00:00 10 7 Sur 13 Sur 0 1012.4 -0.1 98
2018-01-19 00:00:00 9.8 10 Sur 18 Sur 0 1012.3 -0.2 98
2018-01-18 23:00:00 9.9 6 Sur 17 Sur 0 1012.5 0.1 98
2018-01-18 22:00:00 9.9 7 Sur 22 Sur 0 1012.5 0.2 98
2018-01-18 21:00:00 9.9 10 Sur 22 Sudeste 0 1012.5 0.3 97
2018-01-18 20:00:00 10.1 5 Sur 18 Sudeste 0 1012.4 0.5 97
2018-01-18 19:00:00 10.6 8 Sur 13 Sur 0 1012.3 0.2 92
2018-01-18 18:00:00 11.3 9 Sudoeste 21 Sur 0 1012.2 -0.3 86
2018-01-18 17:00:00 11.6 8 Sur 26 Sudeste 0 1011.9 -1.4 85
2018-01-18 16:00:00 11 9 Sur 21 Sur 0 1012.1 -1.6 85
2018-01-18 15:00:00 10.8 12 Sudoeste 15 Sudoeste 0 1012.5 -1.6 85
2018-01-18 14:00:00 10.4 13 Sudoeste 22 Sudoeste 0 1013.3 -0.7 83
2018-01-18 13:00:00 10.3 16 Sudoeste 22 Sur 0 1013.7 -0.2 82
2018-01-18 12:00:00 9.9 10 Sur 17 Sur 0 1014.1 0.2 85
2018-01-18 11:00:00 8.6 8 Sur 18 Sur 0 1014 0.3 89
2018-01-18 10:00:00 7.9 8 Sur 21 Sur 0 1013.9 0.3 90
2018-01-18 09:00:00 7.2 6 Sur 17 Sudeste 0 1013.9 -0.3 88
2018-01-18 08:00:00 7.1 9 Sur 30 Sudeste 0 1013.7 -0.7 87
2018-01-18 07:00:00 6.8 11 Sur 26 Sur 0 1013.6 -1.4 88
2018-01-18 06:00:00 6.6 12 Sur 17 Sur 0 1014.2 -1.1 89
2018-01-18 05:00:00 6.2 13 Sur 18 Sur 0 1014.4 -1.6 91
2018-01-18 04:00:00 6.4 13 Sur 17 Sur 0 1015 -1.5 90
2018-01-18 03:00:00 7.2 11 Sur -- -- 0 1015.3 -1.7 85
2018-01-18 02:00:00 7.4 10 Sudoeste 13 Sudoeste 0 1016 -1.4 85
2018-01-18 01:00:00 8.4 8 Sur 17 Sudoeste 0 1016.5 -0.7 84
2018-01-18 00:00:00 10.3 9 Sudoeste 15 Sudoeste 0 1017 -0.2 69
2018-01-17 23:00:00 9.7 6 Sudoeste 15 Oeste 0 1017.4 0.5 80
2018-01-17 22:00:00 10.4 7 Oeste 15 Oeste 0 1017.2 0.1 74
2018-01-17 21:00:00 10.4 6 Oeste 13 Oeste 0 1017.2 0.1 74
2018-01-17 20:00:00 10 4 Sudoeste 8 Sur 0 1016.9 -0.6 81
2018-01-17 19:00:00 10.9 3 Oeste 8 Oeste 0 1017.1 -0.7 65
2018-01-17 18:00:00 11.6 4 Noroeste 13 Oeste 0 1017.1 -1 67
2018-01-17 17:00:00 11.7 3 Norte 17 Noroeste 0 1017.5 -1.1 66
2018-01-17 16:00:00 12.3 6 Norte 18 Norte 0 1017.8 -1.5 57
2018-01-17 15:00:00 12.3 13 Norte 24 Norte 0 1018.1 -1.4 57
2018-01-17 14:00:00 12.4 11 Norte 22 Norte 0 1018.6 -0.6 60
2018-01-17 13:00:00 12.2 11 Norte 21 Noroeste 0 1019.3 0.7 62
2018-01-17 12:00:00 12.2 9 Norte 18 Nordeste 0 1019.5 1.3 65
2018-01-17 11:00:00 11.5 6 Norte 22 Norte 0 1019.2 1.4 73
2018-01-17 10:00:00 11.2 9 Norte 21 Noroeste 0 1018.6 1 73
2018-01-17 09:00:00 11.2 11 Norte 30 Noroeste 0 1018.2 0.5 73
2018-01-17 08:00:00 11.1 5 Oeste 21 Norte 0 1017.8 0.4 68
2018-01-17 07:00:00 11.3 6 Noroeste 26 Noroeste 0 1017.6 0.1 62
2018-01-17 06:00:00 10.9 9 Noroeste 35 Norte 0 1017.7 0.6 77
2018-01-17 05:00:00 11.3 10 Noroeste 24 Noroeste 0 1017.4 0.3 72
2018-01-17 04:00:00 11.6 9 Noroeste 30 Noroeste 0 1017.5 0.9 71
2018-01-17 03:00:00 11.6 17 Norte 33 Noroeste 0 1017.1 0.7 81
2018-01-17 02:00:00 11.9 9 Noroeste 21 Noroeste 0 1017.1 1.1 85
2018-01-17 01:00:00 12.1 6 Noroeste 24 Oeste 0 1016.6 0.8 85
2018-01-17 00:00:00 12.4 14 Oeste 37 Noroeste 0 1016.4 0.8 84
2018-01-16 23:00:00 12.8 13 Oeste 28 Sudoeste 0 1016 0.7 86
2018-01-16 22:00:00 12.9 15 Oeste 30 Oeste 0 1015.8 1.2 86
2018-01-16 21:00:00 12.6 18 Oeste 33 Noroeste 0 1015.6 1.1 91
2018-01-16 20:00:00 12.6 13 Oeste 28 Oeste 0 1015.3 1.2 93
2018-01-16 19:00:00 13.1 14 Oeste 24 Oeste 0 1014.6 0.9 90
2018-01-16 18:00:00 13.6 14 Oeste 28 Oeste 0 1014.5 0.1 87
2018-01-16 17:00:00 14.2 18 Oeste 35 Oeste 0 1014.1 -1.1 83
2018-01-16 16:00:00 15.1 16 Oeste 35 Sudoeste 0 1013.7 -2.3 79
2018-01-16 15:00:00 15 19 Oeste 39 Sudoeste 0 1014.4 -1.8 79
2018-01-16 14:00:00 14.8 14 Sudoeste 32 Oeste 0 1015.2 -0.3 82
2018-01-16 13:00:00 14.2 10 Oeste 24 Sudoeste 0 1016 0.7 82
2018-01-16 12:00:00 14.1 11 Oeste 28 Sudoeste 0 1016.2 1.1 81
2018-01-16 11:00:00 13.7 12 Sudoeste 30 Oeste 0 1015.5 0.9 82
2018-01-16 10:00:00 12.6 6 Sudoeste 28 Sudoeste 0 1015.3 1.4 88
2018-01-16 09:00:00 12.6 14 Sudoeste 26 Sudoeste 0 1015.1 0.9 88
2018-01-16 08:00:00 12.6 8 Oeste 21 Sudoeste 0 1014.6 0.4 89
2018-01-16 07:00:00 12.2 12 Sudoeste 21 Oeste 0.1 1013.9 -0.3 93
2018-01-16 06:00:00 12 4 Sudoeste 17 Oeste 0.2 1014.2 0 95
2018-01-16 05:00:00 12.1 7 Sudoeste 18 Oeste 0 1014.2 -0.3 94
2018-01-16 04:00:00 12.2 3 Oeste 17 Sudoeste 0.1 1014.2 -0.3 95
2018-01-16 03:00:00 12 6 Sudoeste 15 Oeste 0.1 1014.2 0 96
2018-01-16 02:00:00 11.3 7 Sudoeste 21 Sudoeste 0.3 1014.5 0.7 97
2018-01-16 01:00:00 11.2 14 Sur 22 Sur 0.2 1014.5 1.4 95
2018-01-16 00:00:00 11.1 13 Sur 22 Sur 0.1 1014.2 1.6 95
2018-01-15 23:00:00 11.3 13 Sur 28 Sur 0 1013.8 1.4 91
2018-01-15 22:00:00 11.8 19 Sur 32 Sur 0 1013.1 0.9 86
2018-01-15 21:00:00 11.8 21 Sur 33 Sur 0 1012.6 0.8 84
2018-01-15 20:00:00 11.6 22 Sudoeste 35 Sudoeste 0 1012.4 0.6 85
2018-01-15 19:00:00 11.6 21 Sur 35 Sur 0 1012.2 0.8 83
2018-01-15 18:00:00 11.6 24 Sudoeste 39 Sudoeste 0 1011.8 -0.1 83
2018-01-15 17:00:00 11.8 23 Sudoeste 46 Sudoeste 0 1011.8 -0.9 80
2018-01-15 16:00:00 11.7 27 Sudoeste 50 Sudoeste 0 1011.4 -2.1 80
2018-01-15 15:00:00 11 23 Sudoeste 39 Sur 0 1011.9 -2.3 81
2018-01-15 14:00:00 10.3 23 Sur 42 Sudoeste 0 1012.7 -1.4 79
2018-01-15 13:00:00 9.3 28 Sudoeste 39 Sudoeste 0 1013.5 0.1 80
2018-01-15 12:00:00 8.3 27 Sudoeste 42 Sudoeste 0 1014.2 0.7 82
2018-01-15 11:00:00 7.8 27 Sudoeste 41 Sudoeste 0 1014.1 1.1 84
2018-01-15 10:00:00 6.4 16 Sur 26 Sur 0 1013.4 0.2 89
2018-01-15 09:00:00 5.3 14 Sur 28 Sur 0 1013.5 0.6 91
2018-01-15 08:00:00 4.4 14 Sur 30 Sur 0 1013 0.1 95
2018-01-15 07:00:00 4.1 13 Sur 21 Sur 0 1013.2 0.2 97
2018-01-15 06:00:00 3.2 15 Sur 18 Sur 0 1012.9 0.2 98
2018-01-15 05:00:00 3.1 11 Sur 17 Sur 0 1012.9 -0.2 98
2018-01-15 04:00:00 2.2 9 Sur 13 Sur 0 1013 -0.2 98
2018-01-15 03:00:00 2.4 7 Sur 18 Sur 0 1012.7 -0.4 98
2018-01-15 02:00:00 2.4 9 Sur 18 Sur 0 1013.1 0 98
2018-01-15 01:00:00 2.6 10 Sur 15 Sur 0 1013.2 0.9 98
2018-01-15 00:00:00 3.1 14 Sur 18 Sur 0 1013.1 1.4 97
2018-01-14 23:00:00 3.8 11 Sur 22 Sudeste 0 1013.1 2.1 97
2018-01-14 22:00:00 4.5 9 Sur 17 Sudeste 0 1012.3 1.8 96
2018-01-14 21:00:00 5.2 5 Sur -- -- 0 1011.7 2 95
2018-01-14 20:00:00 6.5 6 Sur 13 Sur 0 1011 2 91
2018-01-14 19:00:00 7.9 2 Oeste 4 Oeste 0 1010.5 2.1 83
2018-01-14 18:00:00 9.3 2 Noroeste 8 Norte 0 1009.7 1.6 79
2018-01-14 17:00:00 9.8 5 Norte 17 Nordeste 0 1009 0.6 75
2018-01-14 16:00:00 11.5 3 Sudoeste 13 Sudoeste 0 1008.4 -0.6 60
2018-01-14 15:00:00 11.4 7 Sudoeste 18 Sudoeste 0 1008.1 -0.7 61
2018-01-14 14:00:00 10.7 8 Sudoeste 15 Sudoeste 0 1008.4 0.2 67
2018-01-14 13:00:00 9.7 8 Sudeste 15 Sudeste 0 1009 1.5 75
2018-01-14 12:00:00 7.9 6 Sur 28 Sudeste 0 1008.8 1.6 82
2018-01-14 11:00:00 5.7 6 Sudeste 18 Sudeste 0 1008.2 1.6 91
2018-01-14 10:00:00 3.5 9 Sur 17 Sur 0 1007.5 1.5 96
2018-01-14 09:00:00 2.8 10 Sur 15 Sur 0 1007.2 1.1 97
2018-01-14 08:00:00 2.8 6 Sudeste 18 Sudeste 0 1006.6 0.2 97
2018-01-14 07:00:00 3.3 13 Sur 17 Sur 0 1006 -0.4 96
2018-01-14 06:00:00 3.6 11 Sur 18 Sur 0.2 1006.1 0.2 95
2018-01-14 05:00:00 4.4 13 Sur 18 Sur 0 1006.4 0.5 96
2018-01-14 04:00:00 4.7 7 Sudeste 17 Sur 0.1 1006.4 0.4 94
2018-01-14 03:00:00 5 11 Este 17 Este 0.1 1005.9 0.1 95
2018-01-14 02:00:00 5.6 11 Sur 15 Sur 0.6 1005.9 0.2 94
2018-01-14 01:00:00 5.8 8 Sur 21 Sudoeste 0.5 1006 0.3 93
2018-01-14 00:00:00 5.6 8 Sudoeste 15 Sudoeste 0 1005.8 0.7 95
2018-01-13 23:00:00 6.2 2 Sudeste 28 Sur 0.8 1005.7 0.8 95
2018-01-13 22:00:00 6.9 9 Sur 24 Oeste 1.6 1005.7 1.5 89
2018-01-13 21:00:00 6.2 13 Sur 21 Sur 1.2 1005.1 1.7 94
2018-01-13 20:00:00 6.8 5 Este 18 Sur 0.1 1004.9 1.8 92
2018-01-13 19:00:00 7.7 9 Sudoeste 33 Noroeste 0.8 1004.2 1.3 83
2018-01-13 18:00:00 9.2 15 Sudoeste 24 Sudoeste 0 1003.4 0.5 79
2018-01-13 17:00:00 10.5 9 Sudoeste 21 Oeste 0 1003.1 0.3 71
2018-01-13 16:00:00 11.2 12 Sudoeste 30 Sudoeste 0 1002.9 -0.8 73
2018-01-13 15:00:00 9.5 6 Sur 13 Sudoeste 0 1002.9 -0.8 85
2018-01-13 14:00:00 8.7 12 Sudoeste 30 Oeste 0.4 1002.8 -0.6 86
2018-01-13 13:00:00 10.3 22 Oeste 37 Oeste 0.8 1003.7 1.1 77
2018-01-13 12:00:00 10.8 8 Sudoeste 24 Oeste 0.3 1003.7 1.4 76
2018-01-13 11:00:00 8.2 12 Sudoeste 18 Sudoeste 0.1 1003.4 1.3 93
2018-01-13 10:00:00 9.2 15 Sudoeste 22 Oeste 0.1 1002.6 0.9 88
2018-01-13 09:00:00 7.1 14 Sudoeste 17 Sur 0 1002.3 0.7 97
2018-01-13 08:00:00 7.6 9 Sur 26 Sudeste 0 1002.1 -0.1 97
2018-01-13 07:00:00 7.9 5 Sur 26 Sudeste 0 1001.7 -0.7 96
2018-01-13 06:00:00 8.1 8 Sur 17 Sur 0.3 1001.6 -0.7 97
2018-01-13 05:00:00 8.4 12 Sur 15 Sur 1.4 1002.2 0.2 96
2018-01-13 04:00:00 9.1 5 Sur 26 Sur 1.2 1002.4 0.2 92
2018-01-13 03:00:00 9.2 16 Sur 26 Sudoeste 1.3 1002.3 -0.2 91
2018-01-13 02:00:00 9.4 9 Sudeste 35 Sur 0 1002 -1.5 83
2018-01-13 01:00:00 9.9 20 Sur 35 Sur 0 1002.2 -1.6 76
2018-01-13 00:00:00 9.8 25 Sudeste 35 Sudeste 0.2 1002.5 -1.8 78
2018-01-12 23:00:00 10.3 24 Sudeste 48 Sudeste 0.1 1003.5 -2.1 75
2018-01-12 22:00:00 10.8 23 Sudeste 45 Sur 0 1003.8 -1.9 70
2018-01-12 21:00:00 10.6 32 Sur 48 Sur 0 1004.3 -1.3 69
2018-01-12 20:00:00 10.7 18 Sur 32 Sur 0 1005.6 -0.7 69
2018-01-12 19:00:00 11 22 Sur 46 Sur 0 1005.7 -1.7 70
2018-01-12 18:00:00 11.3 32 Sur 50 Sur 0 1005.6 -2.8 71
2018-01-12 17:00:00 11.6 21 Sur 42 Sudoeste 0 1006.3 -3.2 69
2018-01-12 16:00:00 12.3 28 Sur 42 Sur 0 1007.4 -3.9 65
2018-01-12 15:00:00 11.7 22 Sur 37 Sudoeste 0 1008.4 -3.4 66
2018-01-12 14:00:00 10.3 15 Sudeste 26 Sudeste 0 1009.5 -1.9 67
2018-01-12 13:00:00 10.2 15 Sudeste 28 Sur 0 1011.3 -0.7 63
2018-01-12 12:00:00 9.4 19 Sur 28 Sur 0 1011.8 -0.3 64
2018-01-12 11:00:00 7.8 19 Sudeste 30 Sudeste 0 1011.4 -0.4 69
2018-01-12 10:00:00 6.1 11 Sudeste 28 Sudeste 0 1012 -0.1 76
2018-01-12 09:00:00 6.6 18 Sur 26 Sur 0 1012.1 -0.8 74
2018-01-12 08:00:00 5.7 18 Sudeste 28 Sudeste 0 1011.8 -2.1 79
2018-01-12 07:00:00 4.7 11 Sudeste 28 Sur 0 1012.1 -2.2 84
2018-01-12 06:00:00 3.8 10 Sudeste 15 Sudeste 0 1012.9 -1.7 91
2018-01-12 05:00:00 3.3 10 Sur 17 Sur 0 1013.9 -1 92
2018-01-12 04:00:00 3.9 14 Sur 18 Sur 0 1014.3 -1.1 92
2018-01-12 03:00:00 4.3 13 Sur 17 Sudeste 0 1014.6 -1.2 90
2018-01-12 02:00:00 4.3 9 Sur 15 Sudeste 0 1014.9 -0.9 89
2018-01-12 01:00:00 5.1 10 Sur 13 Sur 0 1015.4 -0.2 88
2018-01-12 00:00:00 6.3 9 Sudoeste 15 Sudoeste 0 1015.8 0.2 80
2018-01-11 23:00:00 6.6 10 Sudoeste 21 Sur 0 1015.8 0.2 83
2018-01-11 22:00:00 8.1 4 Sur 15 Sur 0 1015.6 0.5 76
2018-01-11 21:00:00 9 8 Sudoeste 15 Oeste 0 1015.6 0.9 74
2018-01-11 20:00:00 9.8 8 Oeste 17 Oeste 0 1015.6 1.3 68
2018-01-11 19:00:00 10.1 3 Noroeste 24 Oeste 0 1015.1 1 67
2018-01-11 18:00:00 10.5 12 Noroeste 24 Norte 0 1014.7 0.9 64
2018-01-11 17:00:00 10.5 13 Noroeste 28 Noroeste 0 1014.3 0.5 67
2018-01-11 16:00:00 11 18 Noroeste 37 Noroeste 0 1014.1 0.1 64
2018-01-11 15:00:00 11.4 21 Noroeste 41 Norte 0 1013.8 -0.1 56
2018-01-11 14:00:00 11.3 18 Noroeste 39 Noroeste 0 1013.8 0.6 61
2018-01-11 13:00:00 11 22 Noroeste 45 Noroeste 0 1014 1.3 62
2018-01-11 12:00:00 9.2 17 Noroeste 42 Noroeste 0.1 1013.9 1.6 76
2018-01-11 11:00:00 9.7 19 Oeste 33 Noroeste 0 1013.2 1.8 72
2018-01-11 10:00:00 9.3 15 Noroeste 42 Noroeste 0 1012.7 2.2 69
2018-01-11 09:00:00 8.9 21 Noroeste 46 Noroeste 0 1012.3 2.7 69
2018-01-11 08:00:00 8.9 18 Noroeste 37 Noroeste 0 1011.4 2 68
2018-01-11 07:00:00 7.9 26 Noroeste 46 Noroeste 0.2 1010.5 1.2 78
2018-01-11 06:00:00 8.3 14 Noroeste 45 Oeste 0 1009.6 0.9 78
2018-01-11 05:00:00 7.9 12 Noroeste 54 Norte 2.4 1009.4 0.7 81
2018-01-11 04:00:00 9 19 Noroeste 55 Noroeste 0 1009.3 0.7 70
2018-01-11 03:00:00 9.6 23 Noroeste 58 Oeste 0 1008.7 1.2 68
2018-01-11 02:00:00 9.2 25 Noroeste 54 Noroeste 0 1008.7 1.9 68
2018-01-11 01:00:00 9.1 23 Noroeste 78 Noroeste 0.1 1008.6 2.4 68
2018-01-11 00:00:00 9.9 27 Noroeste 72 Oeste 0 1007.5 1 64
2018-01-10 23:00:00 7.1 23 Oeste 52 Oeste 2 1006.8 0.3 88
2018-01-10 22:00:00 8.3 21 Oeste 37 Oeste 0 1006.2 0.6 82
2018-01-10 21:00:00 6.9 17 Sudoeste 52 Oeste 2.4 1006.5 1.2 91
2018-01-10 20:00:00 7.4 21 Noroeste 45 Oeste 0.7 1006.5 2.2 86
2018-01-10 19:00:00 10 21 Oeste 45 Noroeste 0 1005.6 2.6 65
2018-01-10 18:00:00 8.4 27 Oeste 65 Oeste 0.5 1005.3 3.3 76
2018-01-10 17:00:00 11.6 26 Noroeste 58 Noroeste 0 1004.3 3.1 55
2018-01-10 16:00:00 11.8 36 Oeste 65 Noroeste 0 1003 1.9 56
2018-01-10 15:00:00 9.9 36 Oeste 68 Oeste 0.2 1002 1.6 70
2018-01-10 14:00:00 9.6 17 Oeste 61 Oeste 0.8 1001.2 2.7 75
2018-01-10 13:00:00 10.8 26 Oeste 54 Oeste 0.3 1001.1 4.9 68
2018-01-10 12:00:00 11.6 27 Oeste 61 Oeste 0 1000.4 3.6 63
2018-01-10 11:00:00 9.8 22 Sudoeste 65 Oeste 4.4 998.5 0.7 81
2018-01-10 10:00:00 10.7 36 Sur 55 Sur 1.5 996.2 -2.9 87
2018-01-10 09:00:00 10.4 22 Sur 41 Sur 0.1 996.8 -3.5 86
2018-01-10 08:00:00 10.2 22 Sur 42 Sur 0 997.8 -3.3 83
2018-01-10 07:00:00 9.6 23 Sur 39 Sur 0 999.1 -2.5 86
2018-01-10 06:00:00 7.7 12 Sur 22 Sur 0 1000.3 -1.1 92
2018-01-10 05:00:00 7.3 8 Sur 21 Sur 0 1001.1 -0.4 90
2018-01-10 04:00:00 7.3 6 Sur 24 Sudoeste 0 1001.6 -0.2 89
2018-01-10 03:00:00 7.1 14 Sudoeste 21 Sudoeste 0 1001.4 -0.3 88
2018-01-10 02:00:00 7.4 13 Sudoeste 17 Sur 0 1001.5 0.1 88
2018-01-10 01:00:00 7.7 14 Sudoeste 21 Sudoeste 0 1001.8 0.9 87
2018-01-10 00:00:00 9.2 14 Sudoeste 26 Sudoeste 0 1001.7 1.3 85
2018-01-09 23:00:00 9.9 13 Sudoeste 18 Sudoeste 0 1001.4 1.6 82
2018-01-09 22:00:00 10.1 14 Sudoeste 22 Sudoeste 0 1000.9 2 81
2018-01-09 21:00:00 9.9 10 Sudoeste 22 Oeste 0 1000.4 2.6 86
2018-01-09 20:00:00 11.2 16 Oeste 28 Oeste 0.3 999.8 2.6 84
2018-01-09 19:00:00 11.6 14 Oeste 33 Oeste 0 998.9 2.5 81
2018-01-09 18:00:00 11.6 18 Sudoeste 32 Oeste 0.8 997.8 1.5 85
2018-01-09 17:00:00 12.3 19 Oeste 35 Oeste 0.5 997.2 0.9 78
2018-01-09 16:00:00 13.9 13 Oeste 32 Oeste 0 996.4 -0.3 66
2018-01-09 15:00:00 14.5 14 Oeste 28 Oeste 0 996.3 0.5 66
2018-01-09 14:00:00 12 13 Sur 26 Sudoeste 1.6 996.3 2.5 87
2018-01-09 13:00:00 10.6 17 Sudoeste 42 Sudoeste 0.3 996.7 3 86
2018-01-09 12:00:00 10.4 32 Sur 78 Sur 0 995.8 1.9 81
2018-01-09 11:00:00 10.1 35 Sudoeste 65 Sur 0 993.8 -0.6 80
2018-01-09 10:00:00 9.8 30 Sur 67 Sur 0 993.7 -0.6 78
2018-01-09 09:00:00 9.4 25 Sur 48 Sudoeste 0 993.9 -1.3 80
2018-01-09 08:00:00 9.1 15 Sur 28 Sudeste 0 994.4 -2.9 74
2018-01-09 07:00:00 8.9 14 Sur 45 Sur 0 994.3 -3.8 71
2018-01-09 06:00:00 8.7 30 Sur 52 Sur 0 995.2 -2.6 61
2018-01-09 05:00:00 8.3 28 Sur 48 Sudeste 0 997.3 -0.6 68
2018-01-09 04:00:00 8.7 26 Sur 41 Sur 0 998.1 -0.7 67
2018-01-09 03:00:00 8.7 24 Sur 48 Sudoeste 0 997.8 -1.4 74
2018-01-09 02:00:00 8.9 28 Sur 45 Sur 0 997.9 -2.4 74
2018-01-09 01:00:00 9.4 22 Sur 35 Sudoeste 0 998.8 -1.6 75
2018-01-09 00:00:00 9.8 12 Sur 26 Sur 0 999.2 -1.3 75
2018-01-08 23:00:00 10.2 21 Sudoeste 45 Sudoeste 0 1000.3 -0.3 81
2018-01-08 22:00:00 10.2 18 Sudoeste 33 Sudoeste 0 1000.4 0.4 84
2018-01-08 21:00:00 10.5 18 Sudoeste 26 Sudoeste 0 1000.5 0.2 85
2018-01-08 20:00:00 10.3 14 Sudoeste 18 Sur 0 1000.6 0.5 91
2018-01-08 19:00:00 10.5 6 Sur 21 Sur 0 1000 0.1 94
2018-01-08 18:00:00 11.3 10 Sudoeste 18 Oeste 0 1000.3 0.2 86
2018-01-08 17:00:00 11.8 3 Sudeste 13 Sudeste 0 1000.1 0 89
2018-01-08 16:00:00 12.1 3 Sudoeste 13 Sur 0 999.9 -0.4 86
2018-01-08 15:00:00 11.9 3 Oeste 13 Sudeste 0 1000.1 -0.4 88
2018-01-08 14:00:00 11.4 3 Sur 22 Sudeste 0 1000.1 -0.5 88
2018-01-08 13:00:00 9.7 4 Sur 18 Sur 0 1000.3 -0.2 98
2018-01-08 12:00:00 7.7 5 Sur 13 Sur 0 1000.5 1.1 98
2018-01-08 11:00:00 5.6 10 Sur 15 Sur 0 1000.6 1.7 98
2018-01-08 10:00:00 4.9 6 Sur 13 Sur 0 1000.5 2.1 99
2018-01-08 09:00:00 4.6 5 Sudoeste 21 Sur 0 999.4 1.2 98
2018-01-08 08:00:00 5.1 4 Sur 13 Sur 0 998.9 0.9 98
2018-01-08 07:00:00 6.2 5 Sur 21 Sur 0 998.4 0.7 98
2018-01-08 06:00:00 6.4 7 Sur 11 Sur 0 998.2 1.6 97
2018-01-08 05:00:00 9.4 0 Calma 5 Sur 0 998 1.7 89
2018-01-08 04:00:00 9.4 3 Norte 11 Norte 0 997.7 1.2 94
2018-01-08 03:00:00 9.2 0 Calma 8 Noroeste 0 996.6 0.4 96
2018-01-08 02:00:00 9.3 3 Noroeste -- -- -- 996.3 0.4 96
2018-01-08 01:00:00 10 5 Norte 17 Norte 0 996.5 0.6 94
2018-01-08 00:00:00 10.4 5 Norte 24 Nordeste 0.2 996.2 0.3 94
2018-01-07 23:00:00 10.6 12 Norte 32 Norte 0 995.9 0.2 92
2018-01-07 22:00:00 10.3 15 Norte 35 Nordeste 0 995.9 0.5 91
2018-01-07 21:00:00 9.7 17 Norte 39 Nordeste 0 995.9 0.7 91
2018-01-07 20:00:00 9.3 15 Norte 37 Norte 0 995.7 0.6 91
2018-01-07 19:00:00 9.4 19 Norte 41 Norte 0 995.4 0.7 88
2018-01-07 18:00:00 8.7 22 Norte 45 Norte 0 995.2 0.2 90
2018-01-07 17:00:00 8.7 18 Norte 52 Norte 0 995.1 -0.1 89
2018-01-07 16:00:00 9.4 24 Norte 48 Norte 0 994.7 -1.2 84
2018-01-07 15:00:00 9.8 22 Norte 54 Norte 0 995 -1.3 74
2018-01-07 14:00:00 10.3 26 Norte 48 Norte 0 995.2 -1.6 70
2018-01-07 13:00:00 10.2 22 Norte 41 Norte 0 995.9 -0.5 68
2018-01-07 12:00:00 8.2 6 Noroeste 13 Norte 0 996.3 0.3 86
2018-01-07 11:00:00 6.7 2 Nordeste 24 Nordeste 0.4 996.8 0.6 90
2018-01-07 10:00:00 5.6 4 Norte 18 Este 0.3 996.4 0.7 91
2018-01-07 09:00:00 5.2 3 Noroeste 13 Este 0 996 0 89
2018-01-07 08:00:00 3.5 12 Este 32 Este 0.5 996.2 0.2 97
2018-01-07 07:00:00 3 0 Calma 15 Sur 0.2 995.7 -0.8 98
2018-01-07 06:00:00 2.7 3 Sudoeste 13 Sur 0 996 0.1 97
2018-01-07 05:00:00 2 2 Sudoeste 26 Nordeste 0.5 996 -0.3 97
2018-01-07 04:00:00 1.5 3 Sur 13 Este 0.2 996.5 0.1 98
2018-01-07 03:00:00 3.9 2 Noroeste 11 Oeste 0.1 995.9 -0.7 98
2018-01-07 02:00:00 3 3 Oeste -- -- -- 996.3 -0.2 98
2018-01-07 01:00:00 2.8 5 Sur 13 Sur 0.1 996.4 0 97
2018-01-07 00:00:00 3 5 Sudoeste 13 Sur 0.1 996.6 0.7 97
2018-01-06 23:00:00 4.1 2 Sudoeste 17 Sur 0 996.5 0.8 96
2018-01-06 22:00:00 4.2 4 Sur 21 Sudeste 0.4 996.4 1.2 95
2018-01-06 21:00:00 5.8 3 Sur 22 Noroeste 0.4 995.9 1.1 88
2018-01-06 20:00:00 4.8 2 Norte 9 Sur 0 995.7 1.2 93
2018-01-06 19:00:00 5.8 3 Sur -- -- 0 995.2 1 87
2018-01-06 18:00:00 7.2 0 Calma 2 Sudoeste 0 994.8 0.8 80
2018-01-06 17:00:00 8.1 0 Calma 13 Norte 0 994.5 0 74
2018-01-06 16:00:00 8.8 9 Nordeste 21 Norte 0 994.2 -0.9 71
2018-01-06 15:00:00 8.9 0 Calma 5 Nordeste 0 994 -1.2 75
2018-01-06 14:00:00 8.8 4 Sudeste 15 Sur 0 994.5 -0.5 76
2018-01-06 13:00:00 7.1 5 Sudeste 11 Este 0 995.1 0.5 86
2018-01-06 12:00:00 4.2 5 Sudeste 24 Sudeste 0 995.2 1.1 95
2018-01-06 11:00:00 3.4 9 Sur 15 Sur 1.4 995 0.9 95
2018-01-06 10:00:00 3 6 Sudeste 15 Sur 0 994.6 1.7 96
2018-01-06 09:00:00 2.2 9 Sur 18 Sur 0.2 994.1 0.6 95
2018-01-06 08:00:00 2.7 0 Calma 32 Este 0.7 994.1 0 95
2018-01-06 07:00:00 2.8 16 Sur 21 Sur 0.2 992.9 -0.9 94
2018-01-06 06:00:00 3 13 Sur 18 Sur 0.3 993.5 -0.3 95
2018-01-06 05:00:00 4.3 11 Sur 30 Noroeste 1.3 994.1 -0.2 90
2018-01-06 04:00:00 4.3 24 Oeste 41 Noroeste 0.9 993.8 -1.2 86
2018-01-06 03:00:00 2.4 13 Sur 30 Oeste 0.2 993.8 -1.5 91
2018-01-06 02:00:00 3 5 Sur -- -- -- 994.3 -1.2 89
2018-01-06 01:00:00 3.4 5 Sur 21 Oeste 0 995 -0.6 89
2018-01-06 00:00:00 6 13 Sudoeste 22 Sudoeste 0 995.3 -0.4 71
2018-01-05 23:00:00 6.4 14 Sudoeste 22 Sudoeste 0 995.5 -0.5 73
2018-01-05 22:00:00 5.9 6 Sur 24 Noroeste 0 995.6 -0.2 80
2018-01-05 21:00:00 6.4 13 Sudoeste 17 Oeste 0 995.7 -0.5 76
2018-01-05 20:00:00 6.8 4 Oeste 30 Oeste 0 996 -0.6 72
2018-01-05 19:00:00 6.3 11 Sudoeste 22 Sudoeste 0 995.8 -1.1 79
2018-01-05 18:00:00 7.7 16 Sudoeste 28 Oeste 0 996.2 -0.8 71
2018-01-05 17:00:00 8.5 24 Oeste 39 Oeste 0 996.6 -0.7 67
2018-01-05 16:00:00 8 18 Oeste 45 Oeste 1.3 996.9 -1.1 75
2018-01-05 15:00:00 10.4 16 Oeste 35 Noroeste 0 997 -1.8 59
2018-01-05 14:00:00 10.7 10 Oeste 32 Oeste 0 997.3 -1.4 73
2018-01-05 13:00:00 11 8 Oeste 33 Oeste 0 998 -0.2 69
2018-01-05 12:00:00 10.2 23 Noroeste 50 Noroeste 0 998.8 1 73
2018-01-05 11:00:00 9.6 15 Oeste 33 Oeste 0.4 998.7 0.9 82
2018-01-05 10:00:00 9.8 17 Oeste 32 Oeste 2.3 998.2 0.5 83
2018-01-05 09:00:00 10.3 15 Oeste 28 Oeste 0.2 997.8 -0.1 88
2018-01-05 08:00:00 9.9 15 Oeste 26 Oeste 0.6 997.8 -0.8 92
2018-01-05 07:00:00 9.9 12 Oeste 22 Oeste 0.3 997.7 -1.4 91
2018-01-05 06:00:00 9.9 4 Sur 22 Oeste 0.9 997.9 -0.6 93
2018-01-05 05:00:00 10.3 9 Oeste 33 Oeste 3.3 998.6 0.7 89
2018-01-05 04:00:00 10.3 20 Noroeste 48 Norte 5.2 999.1 0 95
2018-01-05 03:00:00 11.7 15 Oeste 48 Noroeste 6.4 998.5 -2 89
2018-01-05 02:00:00 13.8 27 Sudoeste -- -- -- 997.9 -4 88
2018-01-05 01:00:00 14 31 Sudoeste 55 Sudoeste 0.3 999.1 -3.6 87
2018-01-05 00:00:00 13.9 26 Sur 39 Sur 1.9 1000.5 -3 91
2018-01-04 23:00:00 14.4 25 Sudoeste 39 Sudoeste 0 1001.9 -3.1 86
2018-01-04 22:00:00 14.4 21 Sur 50 Sudoeste 0 1002.7 -3 85
2018-01-04 21:00:00 14.6 29 Sur 50 Sur 0 1003.5 -2.6 82
2018-01-04 20:00:00 14.7 14 Sur 52 Sudoeste 0 1005 -1.6 83
2018-01-04 19:00:00 14.4 19 Sudoeste 37 Sudoeste 0 1005.7 -1.8 85
2018-01-04 18:00:00 14 22 Sudoeste 41 Sudoeste 0 1006.1 -1.8 85
2018-01-04 17:00:00 14.9 28 Sudoeste 48 Sudoeste 0 1006.6 -2.5 82
2018-01-04 16:00:00 15.3 25 Sudoeste 46 Sudoeste 0 1007.5 -2.7 79
2018-01-04 15:00:00 15.6 26 Sudoeste 50 Sudoeste 0 1007.9 -2.9 76
2018-01-04 14:00:00 16.1 32 Sudoeste 58 Sudoeste 0 1009.1 -2.4 71
2018-01-04 13:00:00 16.1 26 Sudoeste 55 Sudoeste 0 1010.2 -1.3 71
2018-01-04 12:00:00 16.4 30 Sudoeste 52 Sudoeste 0 1010.8 -0.9 68
2018-01-04 11:00:00 15.5 24 Sudoeste 39 Sudoeste 0 1011.5 -0.3 74
2018-01-04 10:00:00 15 22 Sudoeste 48 Sudoeste 0 1011.5 -0.7 74
2018-01-04 09:00:00 15.3 25 Sudoeste 45 Oeste 0 1011.7 -0.8 75
2018-01-04 08:00:00 15.5 23 Sudoeste 45 Sudoeste 0 1011.8 -1 72
2018-01-04 07:00:00 15.5 21 Sudoeste 42 Sudoeste 0 1012.2 -1.2 75
2018-01-04 06:00:00 15.7 25 Sudoeste 42 Sudoeste 0 1012.5 -1.2 76
2018-01-04 05:00:00 15.7 22 Sudoeste 37 Sudoeste 0 1012.8 -1.8 78
2018-01-04 04:00:00 15.6 22 Sudoeste 35 Sudoeste 0 1013.4 -1.8 81
2018-01-04 03:00:00 15 19 Sudoeste 33 Sudoeste 0 1013.7 -2.1 84
2018-01-04 02:00:00 15.2 18 Sudoeste -- -- -- 1014.6 -1.5 83
2018-01-04 01:00:00 15.6 20 Sudoeste 42 Oeste 0 1015.2 -1.1 80
2018-01-04 00:00:00 15.2 12 Sudoeste 28 Oeste 0 1015.8 -0.8 87
2018-01-03 23:00:00 15.5 17 Sudoeste 35 Sudoeste 0 1016.1 -0.1 82
2018-01-03 22:00:00 15.7 17 Oeste 35 Oeste 0 1016.3 0 83
2018-01-03 21:00:00 16 19 Sudoeste 46 Sudoeste 0 1016.6 0.4 80
2018-01-03 20:00:00 16.4 18 Sudoeste 41 Sudoeste 0 1016.2 -0.3 80
2018-01-03 19:00:00 16.8 12 Oeste 35 Oeste 0 1016.3 -0.1 81
2018-01-03 18:00:00 16.9 20 Oeste 46 Sudoeste 0 1016.2 -0.6 82
2018-01-03 17:00:00 17 20 Sudoeste 39 Oeste 0 1016.5 -0.6 83
2018-01-03 16:00:00 16.5 17 Sudoeste 35 Oeste 0 1016.4 -1.5 88
2018-01-03 15:00:00 17.6 22 Oeste 39 Sudoeste 0 1016.8 -1.3 79
2018-01-03 14:00:00 16.8 20 Sudoeste 32 Sudoeste 0 1017.1 -0.9 85
2018-01-03 13:00:00 17.1 14 Oeste 33 Oeste 0 1017.9 0.4 83
2018-01-03 12:00:00 16.4 14 Oeste 32 Noroeste 0 1018.1 0.8 87
2018-01-03 11:00:00 15.9 16 Oeste 30 Oeste 0 1018 1.2 90
2018-01-03 10:00:00 15.7 14 Oeste 26 Sudoeste 0 1017.5 0.9 91
2018-01-03 09:00:00 15.5 12 Oeste 22 Sudoeste 0 1017.3 0.7 92
2018-01-03 08:00:00 15.2 12 Sudoeste 22 Sudoeste 0 1016.8 0.3 94
2018-01-03 07:00:00 15.5 10 Oeste 22 Sudoeste 0 1016.6 0 91
2018-01-03 06:00:00 15.8 9 Oeste 32 Oeste 0 1016.6 0.4 89
2018-01-03 05:00:00 15.7 13 Sudoeste 35 Sudoeste 0 1016.5 -0.6 90
2018-01-03 04:00:00 16.3 19 Oeste 39 Oeste 0 1016.6 0.1 84
2018-01-03 03:00:00 15.7 22 Sudoeste 37 Sudoeste 0 1016.2 -0.5 89
2018-01-03 02:00:00 16 18 Oeste -- -- -- 1017.1 0.6 88
2018-01-03 01:00:00 16.3 20 Oeste 41 Oeste 0 1016.5 0.6 86
2018-01-03 00:00:00 16.1 19 Oeste 41 Oeste 0 1016.7 0.6 88
2018-01-02 23:00:00 16.9 22 Oeste 42 Oeste 0 1016.5 0.3 82
2018-01-02 22:00:00 16.8 21 Sudoeste 41 Sudoeste 0 1015.9 -0.1 84
2018-01-02 21:00:00 16 20 Sudoeste 35 Sudoeste 0 1016.1 0.3 90
2018-01-02 20:00:00 16 18 Sudoeste 33 Sudoeste 0 1016.2 0.4 91
2018-01-02 19:00:00 16.3 19 Sudoeste 35 Sudoeste 0 1016 0.4 88
2018-01-02 18:00:00 16.2 15 Sudoeste 30 Oeste 0 1015.8 0.4 90
2018-01-02 17:00:00 16.4 17 Oeste 35 Oeste 0 1015.8 0.5 88
2018-01-02 16:00:00 16.5 18 Oeste 39 Oeste 0 1015.6 -0.4 89
2018-01-02 15:00:00 17.3 19 Oeste 42 Oeste 0 1015.4 -1.1 82
2018-01-02 14:00:00 17.1 18 Oeste 39 Oeste 0 1015.3 -0.7 86
2018-01-02 13:00:00 16.7 16 Oeste 33 Sudoeste 0.1 1016 0.2 89
2018-01-02 12:00:00 16 15 Oeste 33 Oeste 0.1 1016.5 1.1 93
2018-01-02 11:00:00 15.7 12 Oeste 26 Oeste 0.3 1016 1.3 93
2018-01-02 10:00:00 15.4 17 Sudoeste 32 Oeste 0.1 1015.8 1.7 92
2018-01-02 09:00:00 15 15 Sudoeste 33 Sudoeste 0.1 1015.4 1.1 91
2018-01-02 08:00:00 14.4 16 Sudoeste 26 Sudoeste 0.1 1014.7 -0.3 91
2018-01-02 07:00:00 14 13 Sur 32 Sudoeste 0.5 1014.1 -1.5 91
2018-01-02 06:00:00 13.7 14 Sudoeste 30 Sudoeste 0 1014.3 -1.7 91
2018-01-02 05:00:00 14.3 14 Sudoeste 30 Sudoeste 0.1 1015 -1.1 84
2018-01-02 04:00:00 14.4 12 Sudoeste 37 Sudoeste 0 1015.6 -0.8 81
2018-01-02 03:00:00 14.6 23 Sudoeste 41 Sudoeste 0 1016 -0.7 76
2018-01-02 02:00:00 14.3 20 Sudoeste 42 Oeste 0 1016.1 -0.7 76
2018-01-02 01:00:00 14.7 24 Sudoeste 48 Sudoeste 0 1016.4 -0.4 75
2018-01-02 00:00:00 14.4 21 Oeste 35 Oeste 0 1016.7 -0.2 76
2018-01-01 23:00:00 13.9 19 Sudoeste 33 Oeste 0 1016.8 0.3 78
2018-01-01 22:00:00 13.7 19 Sudoeste 37 Sudoeste 0 1016.8 0.6 77
2018-01-01 21:00:00 13.5 18 Sudoeste 41 Oeste 0 1016.9 1 82
2018-01-01 20:00:00 13.4 22 Oeste 37 Oeste 0 1016.5 0.7 89
2018-01-01 19:00:00 13.4 17 Oeste 35 Oeste 0 1016.2 0.9 91
2018-01-01 18:00:00 13.4 17 Oeste 39 Oeste 0 1015.9 0.7 89
2018-01-01 17:00:00 13.4 23 Oeste 45 Oeste 0 1015.8 0.5 90
2018-01-01 16:00:00 14.2 25 Oeste 50 Oeste 0 1015.3 -0.1 84
2018-01-01 15:00:00 14.5 23 Oeste 52 Oeste 0 1015.2 0 81
2018-01-01 14:00:00 14.8 32 Oeste 54 Oeste 0 1015.3 0.5 77
2018-01-01 13:00:00 14.6 28 Oeste 52 Oeste 0.1 1015.4 1.1 80
2018-01-01 12:00:00 13.4 22 Oeste 54 Oeste 0.3 1015.2 1.7 87
2018-01-01 11:00:00 13.2 27 Oeste 54 Oeste 0.1 1014.8 1.1 83
2018-01-01 10:00:00 13.4 24 Oeste 52 Sudoeste 0 1014.3 0.3 77
2018-01-01 09:00:00 13.1 25 Sudoeste 52 Oeste 0 1013.5 -0.1 76
2018-01-01 08:00:00 13.4 29 Sudoeste 61 Sudoeste 0 1013.7 -0.4 70
2018-01-01 07:00:00 13.3 30 Sudoeste 54 Oeste 0 1014 -0.9 70
2018-01-01 06:00:00 12.7 23 Sudoeste 46 Sudoeste 0 1013.6 -1.5 71
2018-01-01 05:00:00 12.1 24 Sudoeste 39 Sudoeste 0 1014.1 -1.3 72
2018-01-01 04:00:00 10.7 12 Sur 26 Sur 0 1014.9 -0.9 79
2018-01-01 03:00:00 10.5 15 Sur 28 Sur 0 1015.1 -0.1 81
2018-01-01 02:00:00 10.1 18 Sur 28 Sur 0 1015.4 0 84
2018-01-01 01:00:00 9.5 15 Sur 26 Sudoeste 0 1015.8 1.2 84
2018-01-01 00:00:00 9.1 14 Sur 18 Sur 0 1015.2 0.8 86
2017-12-31 23:00:00 10.6 13 Sudoeste 26 Sudoeste 0.2 1015.4 1.8 77
2017-12-31 22:00:00 11 17 Sudoeste 35 Oeste 0 1014.6 1.7 72
2017-12-31 21:00:00 11.5 18 Oeste 33 Oeste 0 1014.4 2.9 61
2017-12-31 20:00:00 11.8 16 Oeste 35 Oeste 0 1013.6 3.1 61
2017-12-31 19:00:00 12 24 Oeste 42 Oeste 0 1012.9 3.7 58
2017-12-31 18:00:00 11.6 19 Oeste 39 Oeste 0 1011.5 1.6 67
2017-12-31 17:00:00 11.8 26 Oeste 45 Oeste 0 1010.5 3.3 68
2017-12-31 16:00:00 10.1 20 Oeste 52 Oeste 0 1009.2 2.5 71
2017-12-31 15:00:00 7.6 28 Oeste 85 Noroeste 0.8 1009.9 4.1 84
2017-12-31 14:00:00 13.8 28 Oeste 54 Oeste 0 1007.2 2.8 63
2017-12-31 13:00:00 12.8 17 Oeste 33 Sudoeste 0 1006.7 3.1 72
2017-12-31 12:00:00 11.1 21 Oeste 55 Oeste 0.5 1005.8 3.2 73
2017-12-31 11:00:00 10.4 23 Sudoeste 46 Oeste 2.7 1004.4 3.9 80
2017-12-31 10:00:00 11.2 21 Oeste 39 Oeste 4.8 1003.6 2.9 86
2017-12-31 09:00:00 11.1 22 Oeste 63 Sudoeste 6.5 1002.6 0.3 88
2017-12-31 08:00:00 14.3 37 Sur 71 Sur 0 1000.5 -2.6 74
2017-12-31 07:00:00 13.9 38 Sur 71 Sur 0 1000.7 -3.8 75
2017-12-31 06:00:00 14 32 Sur 65 Sur 0.3 1002.3 -2.3 77
2017-12-31 05:00:00 14.5 30 Sur 59 Sur 0.1 1003.1 -2.6 77
2017-12-31 04:00:00 14.6 30 Sur 71 Sur 0 1004.5 -2.5 76
2017-12-31 03:00:00 15 35 Sudoeste 59 Sudoeste 0 1004.6 -2.8 73
2017-12-31 02:00:00 14.8 33 Sur 65 Sudoeste 0 1005.7 -2 76
2017-12-31 01:00:00 14.9 35 Sudoeste 55 Sudoeste 0 1007 -1.6 78